sensor_id;sensor_type;location;lat;lon;timestamp;temperature;humidity
66576;SHT31;53428;47.686;16.584;2024-02-26T00:03:47;7.05;85.78
66576;SHT31;53428;47.686;16.584;2024-02-26T00:08:47;6.84;86.50
66576;SHT31;53428;47.686;16.584;2024-02-26T00:13:46;6.77;86.82
66576;SHT31;53428;47.686;16.584;2024-02-26T00:18:45;6.66;87.18
66576;SHT31;53428;47.686;16.584;2024-02-26T00:23:44;6.54;87.53
66576;SHT31;53428;47.686;16.584;2024-02-26T00:28:43;6.43;87.87
66576;SHT31;53428;47.686;16.584;2024-02-26T00:33:43;6.32;88.27
66576;SHT31;53428;47.686;16.584;2024-02-26T00:38:42;6.25;88.48
66576;SHT31;53428;47.686;16.584;2024-02-26T00:43:43;6.19;88.68
66576;SHT31;53428;47.686;16.584;2024-02-26T00:48:43;6.08;88.99
66576;SHT31;53428;47.686;16.584;2024-02-26T00:53:42;6.09;88.94
66576;SHT31;53428;47.686;16.584;2024-02-26T00:58:41;6.14;89.13
66576;SHT31;53428;47.686;16.584;2024-02-26T01:03:40;6.17;89.08
66576;SHT31;53428;47.686;16.584;2024-02-26T01:08:39;6.32;88.58
66576;SHT31;53428;47.686;16.584;2024-02-26T01:13:39;6.19;88.97
66576;SHT31;53428;47.686;16.584;2024-02-26T01:18:38;6.17;89.07
66576;SHT31;53428;47.686;16.584;2024-02-26T01:23:37;6.12;89.21
66576;SHT31;53428;47.686;16.584;2024-02-26T01:28:36;5.98;89.62
66576;SHT31;53428;47.686;16.584;2024-02-26T01:33:36;6.01;89.77
66576;SHT31;53428;47.686;16.584;2024-02-26T01:38:35;5.88;90.09
66576;SHT31;53428;47.686;16.584;2024-02-26T01:43:34;5.75;90.61
66576;SHT31;53428;47.686;16.584;2024-02-26T01:48:34;5.74;91.02
66576;SHT31;53428;47.686;16.584;2024-02-26T01:53:34;5.61;91.81
66576;SHT31;53428;47.686;16.584;2024-02-26T01:58:35;5.54;92.78
66576;SHT31;53428;47.686;16.584;2024-02-26T02:03:36;5.50;93.22
66576;SHT31;53428;47.686;16.584;2024-02-26T02:08:35;5.49;93.35
66576;SHT31;53428;47.686;16.584;2024-02-26T02:13:34;5.42;93.54
66576;SHT31;53428;47.686;16.584;2024-02-26T02:18:34;5.42;93.64
66576;SHT31;53428;47.686;16.584;2024-02-26T02:23:33;5.38;93.70
66576;SHT31;53428;47.686;16.584;2024-02-26T02:28:32;5.33;93.81
66576;SHT31;53428;47.686;16.584;2024-02-26T02:33:33;5.29;94.11
66576;SHT31;53428;47.686;16.584;2024-02-26T02:38:32;5.35;93.96
66576;SHT31;53428;47.686;16.584;2024-02-26T02:43:32;5.33;94.08
66576;SHT31;53428;47.686;16.584;2024-02-26T02:48:32;5.28;94.17
66576;SHT31;53428;47.686;16.584;2024-02-26T02:53:31;5.21;94.28
66576;SHT31;53428;47.686;16.584;2024-02-26T02:58:30;5.18;94.15
66576;SHT31;53428;47.686;16.584;2024-02-26T03:03:29;5.07;94.38
66576;SHT31;53428;47.686;16.584;2024-02-26T03:08:29;5.05;94.29
66576;SHT31;53428;47.686;16.584;2024-02-26T03:13:28;5.07;94.61
66576;SHT31;53428;47.686;16.584;2024-02-26T03:18:27;5.11;94.50
66576;SHT31;53428;47.686;16.584;2024-02-26T03:23:26;5.07;94.34
66576;SHT31;53428;47.686;16.584;2024-02-26T03:28:25;5.05;94.49
66576;SHT31;53428;47.686;16.584;2024-02-26T03:33:24;4.94;94.39
66576;SHT31;53428;47.686;16.584;2024-02-26T03:38:24;4.99;94.14
66576;SHT31;53428;47.686;16.584;2024-02-26T03:43:23;4.98;93.89
66576;SHT31;53428;47.686;16.584;2024-02-26T03:48:22;5.02;93.47
66576;SHT31;53428;47.686;16.584;2024-02-26T03:53:21;4.84;94.23
66576;SHT31;53428;47.686;16.584;2024-02-26T03:58:21;4.83;94.24
66576;SHT31;53428;47.686;16.584;2024-02-26T04:03:20;4.81;94.22
66576;SHT31;53428;47.686;16.584;2024-02-26T04:08:19;4.83;94.36
66576;SHT31;53428;47.686;16.584;2024-02-26T04:13:19;4.98;94.09
66576;SHT31;53428;47.686;16.584;2024-02-26T04:18:18;5.13;93.60
66576;SHT31;53428;47.686;16.584;2024-02-26T04:23:18;5.25;93.33
66576;SHT31;53428;47.686;16.584;2024-02-26T04:28:17;5.21;93.47
66576;SHT31;53428;47.686;16.584;2024-02-26T04:33:16;5.21;93.61
66576;SHT31;53428;47.686;16.584;2024-02-26T04:38:15;5.08;94.04
66576;SHT31;53428;47.686;16.584;2024-02-26T04:43:15;4.99;94.55
66576;SHT31;53428;47.686;16.584;2024-02-26T04:48:14;4.87;95.03
66576;SHT31;53428;47.686;16.584;2024-02-26T04:53:14;4.74;95.31
66576;SHT31;53428;47.686;16.584;2024-02-26T04:58:13;4.75;95.49
66576;SHT31;53428;47.686;16.584;2024-02-26T05:03:12;4.80;95.72
66576;SHT31;53428;47.686;16.584;2024-02-26T05:08:12;4.71;96.01
66576;SHT31;53428;47.686;16.584;2024-02-26T05:13:11;4.68;96.27
66576;SHT31;53428;47.686;16.584;2024-02-26T05:18:10;4.61;96.22
66576;SHT31;53428;47.686;16.584;2024-02-26T05:23:10;4.63;96.46
66576;SHT31;53428;47.686;16.584;2024-02-26T05:28:09;4.80;95.86
66576;SHT31;53428;47.686;16.584;2024-02-26T05:33:08;4.91;95.60
66576;SHT31;53428;47.686;16.584;2024-02-26T05:38:07;5.01;95.39
66576;SHT31;53428;47.686;16.584;2024-02-26T05:43:06;5.04;95.46
66576;SHT31;53428;47.686;16.584;2024-02-26T05:48:06;4.91;95.67
66576;SHT31;53428;47.686;16.584;2024-02-26T05:53:05;4.94;95.52
66576;SHT31;53428;47.686;16.584;2024-02-26T05:58:04;4.98;95.36
66576;SHT31;53428;47.686;16.584;2024-02-26T06:03:04;4.89;95.56
66576;SHT31;53428;47.686;16.584;2024-02-26T06:08:03;4.81;95.80
66576;SHT31;53428;47.686;16.584;2024-02-26T06:13:03;4.85;95.76
66576;SHT31;53428;47.686;16.584;2024-02-26T06:18:03;4.85;95.78
66576;SHT31;53428;47.686;16.584;2024-02-26T06:23:02;5.04;95.63
66576;SHT31;53428;47.686;16.584;2024-02-26T06:28:01;4.96;95.70
66576;SHT31;53428;47.686;16.584;2024-02-26T06:33:00;4.94;96.21
66576;SHT31;53428;47.686;16.584;2024-02-26T06:38:00;4.95;96.27
66576;SHT31;53428;47.686;16.584;2024-02-26T06:42:59;5.07;96.57
66576;SHT31;53428;47.686;16.584;2024-02-26T06:47:58;5.21;96.38
66576;SHT31;53428;47.686;16.584;2024-02-26T06:52:58;5.33;95.99
66576;SHT31;53428;47.686;16.584;2024-02-26T06:57:57;5.75;94.88
66576;SHT31;53428;47.686;16.584;2024-02-26T07:02:56;5.83;94.53
66576;SHT31;53428;47.686;16.584;2024-02-26T07:07:55;5.88;94.23
66576;SHT31;53428;47.686;16.584;2024-02-26T07:12:55;6.15;93.87
66576;SHT31;53428;47.686;16.584;2024-02-26T07:17:54;6.28;93.18
66576;SHT31;53428;47.686;16.584;2024-02-26T07:22:53;6.50;92.40
66576;SHT31;53428;47.686;16.584;2024-02-26T07:27:52;6.56;92.65
66576;SHT31;53428;47.686;16.584;2024-02-26T07:32:52;6.77;91.82
66576;SHT31;53428;47.686;16.584;2024-02-26T07:37:51;6.90;91.69
66576;SHT31;53428;47.686;16.584;2024-02-26T07:42:50;7.03;91.46
66576;SHT31;53428;47.686;16.584;2024-02-26T07:47:50;7.29;90.98
66576;SHT31;53428;47.686;16.584;2024-02-26T07:52:50;7.45;90.39
66576;SHT31;53428;47.686;16.584;2024-02-26T07:57:50;7.72;89.15
66576;SHT31;53428;47.686;16.584;2024-02-26T08:02:49;7.90;88.78
66576;SHT31;53428;47.686;16.584;2024-02-26T08:07:48;8.08;88.05
66576;SHT31;53428;47.686;16.584;2024-02-26T08:12:47;8.24;87.79
66576;SHT31;53428;47.686;16.584;2024-02-26T08:17:47;8.51;87.01
66576;SHT31;53428;47.686;16.584;2024-02-26T08:22:46;8.56;86.54
66576;SHT31;53428;47.686;16.584;2024-02-26T08:27:45;8.75;85.87
66576;SHT31;53428;47.686;16.584;2024-02-26T08:32:47;9.01;84.86
66576;SHT31;53428;47.686;16.584;2024-02-26T08:37:47;9.11;84.41
66576;SHT31;53428;47.686;16.584;2024-02-26T08:42:46;9.24;84.19
66576;SHT31;53428;47.686;16.584;2024-02-26T08:47:46;9.30;82.23
66576;SHT31;53428;47.686;16.584;2024-02-26T08:52:45;9.56;82.16
66576;SHT31;53428;47.686;16.584;2024-02-26T08:57:47;9.71;79.03
66576;SHT31;53428;47.686;16.584;2024-02-26T09:02:47;9.92;79.35
66576;SHT31;53428;47.686;16.584;2024-02-26T09:07:48;9.99;76.01
66576;SHT31;53428;47.686;16.584;2024-02-26T09:12:48;10.07;74.69
66576;SHT31;53428;47.686;16.584;2024-02-26T09:17:47;10.29;73.60
66576;SHT31;53428;47.686;16.584;2024-02-26T09:22:49;10.58;72.71
66576;SHT31;53428;47.686;16.584;2024-02-26T09:27:49;10.91;72.28
66576;SHT31;53428;47.686;16.584;2024-02-26T09:32:49;11.19;72.16
66576;SHT31;53428;47.686;16.584;2024-02-26T09:37:48;11.48;71.06
66576;SHT31;53428;47.686;16.584;2024-02-26T09:42:52;11.50;71.57
66576;SHT31;53428;47.686;16.584;2024-02-26T09:47:52;11.67;75.14
66576;SHT31;53428;47.686;16.584;2024-02-26T09:52:54;11.75;75.60
66576;SHT31;53428;47.686;16.584;2024-02-26T09:57:58;11.66;75.71
66576;SHT31;53428;47.686;16.584;2024-02-26T10:02:59;11.61;75.26
66576;SHT31;53428;47.686;16.584;2024-02-26T10:08:01;11.77;74.42
66576;SHT31;53428;47.686;16.584;2024-02-26T10:13:00;11.70;74.31
66576;SHT31;53428;47.686;16.584;2024-02-26T10:18:04;11.99;73.80
66576;SHT31;53428;47.686;16.584;2024-02-26T10:23:04;12.05;72.76
66576;SHT31;53428;47.686;16.584;2024-02-26T10:28:04;12.01;72.86
66576;SHT31;53428;47.686;16.584;2024-02-26T10:33:03;12.42;71.37
66576;SHT31;53428;47.686;16.584;2024-02-26T10:38:04;12.67;70.23
66576;SHT31;53428;47.686;16.584;2024-02-26T10:43:04;13.01;69.08
66576;SHT31;53428;47.686;16.584;2024-02-26T10:48:03;13.21;68.61
66576;SHT31;53428;47.686;16.584;2024-02-26T10:53:04;13.23;68.30
66576;SHT31;53428;47.686;16.584;2024-02-26T10:58:04;13.15;67.14
66576;SHT31;53428;47.686;16.584;2024-02-26T11:03:04;13.18;66.29
66576;SHT31;53428;47.686;16.584;2024-02-26T11:08:05;13.38;66.34
66576;SHT31;53428;47.686;16.584;2024-02-26T11:13:05;13.87;65.05
66576;SHT31;53428;47.686;16.584;2024-02-26T11:18:07;13.90;65.04
66576;SHT31;53428;47.686;16.584;2024-02-26T11:23:06;13.55;64.99
66576;SHT31;53428;47.686;16.584;2024-02-26T11:28:10;13.98;63.90
66576;SHT31;53428;47.686;16.584;2024-02-26T11:33:11;14.76;62.79
66576;SHT31;53428;47.686;16.584;2024-02-26T11:38:19;14.84;62.16
66576;SHT31;53428;47.686;16.584;2024-02-26T11:43:50;15.73;60.54
66576;SHT31;53428;47.686;16.584;2024-02-26T11:48:49;15.69;59.40
66576;SHT31;53428;47.686;16.584;2024-02-26T11:53:49;16.33;57.68
66576;SHT31;53428;47.686;16.584;2024-02-26T11:58:48;16.82;57.52
66576;SHT31;53428;47.686;16.584;2024-02-26T12:03:54;16.07;57.91
66576;SHT31;53428;47.686;16.584;2024-02-26T12:08:54;17.37;56.10
66576;SHT31;53428;47.686;16.584;2024-02-26T12:13:55;17.16;56.33
66576;SHT31;53428;47.686;16.584;2024-02-26T12:18:55;18.09;54.15
66576;SHT31;53428;47.686;16.584;2024-02-26T12:23:55;16.89;54.97
66576;SHT31;53428;47.686;16.584;2024-02-26T12:28:54;17.40;53.53
66576;SHT31;53428;47.686;16.584;2024-02-26T12:33:54;17.60;53.50
66576;SHT31;53428;47.686;16.584;2024-02-26T12:38:54;17.11;54.15
66576;SHT31;53428;47.686;16.584;2024-02-26T12:43:53;15.93;54.95
66576;SHT31;53428;47.686;16.584;2024-02-26T12:48:55;15.86;55.67
66576;SHT31;53428;47.686;16.584;2024-02-26T12:53:56;16.17;55.21
66576;SHT31;53428;47.686;16.584;2024-02-26T12:58:56;16.72;54.65
66576;SHT31;53428;47.686;16.584;2024-02-26T13:03:56;15.73;56.58
66576;SHT31;53428;47.686;16.584;2024-02-26T13:08:58;14.84;57.01
66576;SHT31;53428;47.686;16.584;2024-02-26T13:13:57;15.17;57.18
66576;SHT31;53428;47.686;16.584;2024-02-26T13:18:57;15.31;56.91
66576;SHT31;53428;47.686;16.584;2024-02-26T13:23:56;16.21;55.47
66576;SHT31;53428;47.686;16.584;2024-02-26T13:29:02;15.50;56.11
66576;SHT31;53428;47.686;16.584;2024-02-26T13:34:02;15.07;55.75
66576;SHT31;53428;47.686;16.584;2024-02-26T13:39:01;15.23;55.20
66576;SHT31;53428;47.686;16.584;2024-02-26T13:44:03;14.82;56.13
66576;SHT31;53428;47.686;16.584;2024-02-26T13:49:03;14.46;56.71
66576;SHT31;53428;47.686;16.584;2024-02-26T13:54:02;14.44;57.04
66576;SHT31;53428;47.686;16.584;2024-02-26T13:59:02;14.44;57.31
66576;SHT31;53428;47.686;16.584;2024-02-26T14:04:01;14.46;58.63
66576;SHT31;53428;47.686;16.584;2024-02-26T14:09:01;14.31;58.91
66576;SHT31;53428;47.686;16.584;2024-02-26T14:14:00;14.11;59.97
66576;SHT31;53428;47.686;16.584;2024-02-26T14:18:59;14.27;60.87
66576;SHT31;53428;47.686;16.584;2024-02-26T14:23:59;14.14;63.17
66576;SHT31;53428;47.686;16.584;2024-02-26T14:28:58;13.80;62.57
66576;SHT31;53428;47.686;16.584;2024-02-26T14:33:57;13.91;61.79
66576;SHT31;53428;47.686;16.584;2024-02-26T14:38:56;13.76;61.54
66576;SHT31;53428;47.686;16.584;2024-02-26T14:43:55;13.87;60.86
66576;SHT31;53428;47.686;16.584;2024-02-26T14:48:55;13.91;60.82
66576;SHT31;53428;47.686;16.584;2024-02-26T14:53:54;13.88;60.32
66576;SHT31;53428;47.686;16.584;2024-02-26T14:58:53;13.74;60.62
66576;SHT31;53428;47.686;16.584;2024-02-26T15:03:52;13.49;61.17
66576;SHT31;53428;47.686;16.584;2024-02-26T15:08:52;13.38;61.56
66576;SHT31;53428;47.686;16.584;2024-02-26T15:13:51;13.26;61.57
66576;SHT31;53428;47.686;16.584;2024-02-26T15:18:51;13.16;62.02
66576;SHT31;53428;47.686;16.584;2024-02-26T15:23:50;13.05;62.60
66576;SHT31;53428;47.686;16.584;2024-02-26T15:28:52;13.08;63.36
66576;SHT31;53428;47.686;16.584;2024-02-26T15:33:51;13.05;64.70
66576;SHT31;53428;47.686;16.584;2024-02-26T15:38:50;12.95;64.05
66576;SHT31;53428;47.686;16.584;2024-02-26T15:43:49;12.79;64.29
66576;SHT31;53428;47.686;16.584;2024-02-26T15:48:49;12.79;64.27
66576;SHT31;53428;47.686;16.584;2024-02-26T15:53:48;12.68;64.90
66576;SHT31;53428;47.686;16.584;2024-02-26T15:58:49;12.56;65.23
66576;SHT31;53428;47.686;16.584;2024-02-26T16:03:48;12.49;65.29
66576;SHT31;53428;47.686;16.584;2024-02-26T16:08:48;12.32;65.58
66576;SHT31;53428;47.686;16.584;2024-02-26T16:13:50;11.98;66.61
66576;SHT31;53428;47.686;16.584;2024-02-26T16:19:02;11.74;67.54
66576;SHT31;53428;47.686;16.584;2024-02-26T16:24:04;11.64;68.26
66576;SHT31;53428;47.686;16.584;2024-02-26T16:29:03;11.61;68.54
66576;SHT31;53428;47.686;16.584;2024-02-26T16:34:03;11.48;69.23
66576;SHT31;53428;47.686;16.584;2024-02-26T16:39:02;11.34;69.71
66576;SHT31;53428;47.686;16.584;2024-02-26T16:44:01;11.27;69.90
66576;SHT31;53428;47.686;16.584;2024-02-26T16:49:01;11.19;70.16
66576;SHT31;53428;47.686;16.584;2024-02-26T16:54:00;10.96;70.74
66576;SHT31;53428;47.686;16.584;2024-02-26T16:58:59;10.81;71.45
66576;SHT31;53428;47.686;16.584;2024-02-26T17:03:58;10.81;71.71
66576;SHT31;53428;47.686;16.584;2024-02-26T17:08:58;10.68;71.94
66576;SHT31;53428;47.686;16.584;2024-02-26T17:13:57;10.69;72.16
66576;SHT31;53428;47.686;16.584;2024-02-26T17:18:56;10.71;72.07
66576;SHT31;53428;47.686;16.584;2024-02-26T17:23:56;10.64;72.31
66576;SHT31;53428;47.686;16.584;2024-02-26T17:28:55;10.64;72.37
66576;SHT31;53428;47.686;16.584;2024-02-26T17:33:55;10.81;72.41
66576;SHT31;53428;47.686;16.584;2024-02-26T17:38:54;10.67;72.37
66576;SHT31;53428;47.686;16.584;2024-02-26T17:43:53;10.68;72.50
66576;SHT31;53428;47.686;16.584;2024-02-26T17:48:54;10.76;72.48
66576;SHT31;53428;47.686;16.584;2024-02-26T17:53:53;10.79;72.17
66576;SHT31;53428;47.686;16.584;2024-02-26T17:58:52;10.72;71.99
66576;SHT31;53428;47.686;16.584;2024-02-26T18:03:52;10.71;71.70
66576;SHT31;53428;47.686;16.584;2024-02-26T18:08:52;10.67;71.54
66576;SHT31;53428;47.686;16.584;2024-02-26T18:13:51;10.52;71.70
66576;SHT31;53428;47.686;16.584;2024-02-26T18:18:51;10.60;71.19
66576;SHT31;53428;47.686;16.584;2024-02-26T18:23:50;10.52;71.06
66576;SHT31;53428;47.686;16.584;2024-02-26T18:28:50;10.48;71.10
66576;SHT31;53428;47.686;16.584;2024-02-26T18:33:50;10.31;71.43
66576;SHT31;53428;47.686;16.584;2024-02-26T18:38:50;10.18;71.93
66576;SHT31;53428;47.686;16.584;2024-02-26T18:43:52;10.17;71.79
66576;SHT31;53428;47.686;16.584;2024-02-26T18:48:52;10.13;71.82
66576;SHT31;53428;47.686;16.584;2024-02-26T18:53:52;10.00;72.22
66576;SHT31;53428;47.686;16.584;2024-02-26T18:58:52;9.96;72.20
66576;SHT31;53428;47.686;16.584;2024-02-26T19:03:53;9.96;72.14
66576;SHT31;53428;47.686;16.584;2024-02-26T19:08:52;9.93;72.19
66576;SHT31;53428;47.686;16.584;2024-02-26T19:13:52;9.81;72.30
66576;SHT31;53428;47.686;16.584;2024-02-26T19:18:54;9.75;72.41
66576;SHT31;53428;47.686;16.584;2024-02-26T19:23:55;9.69;72.72
66576;SHT31;53428;47.686;16.584;2024-02-26T19:28:55;9.81;72.46
66576;SHT31;53428;47.686;16.584;2024-02-26T19:33:55;9.76;72.68
66576;SHT31;53428;47.686;16.584;2024-02-26T19:38:55;9.75;73.27
66576;SHT31;53428;47.686;16.584;2024-02-26T19:43:56;9.75;73.20
66576;SHT31;53428;47.686;16.584;2024-02-26T19:48:57;9.74;73.51
66576;SHT31;53428;47.686;16.584;2024-02-26T19:54:02;9.74;73.52
66576;SHT31;53428;47.686;16.584;2024-02-26T19:59:03;9.76;73.36
66576;SHT31;53428;47.686;16.584;2024-02-26T20:04:04;9.81;73.39
66576;SHT31;53428;47.686;16.584;2024-02-26T20:09:07;9.71;73.56
66576;SHT31;53428;47.686;16.584;2024-02-26T20:14:08;9.68;73.57
66576;SHT31;53428;47.686;16.584;2024-02-26T20:19:10;9.69;73.83
66576;SHT31;53428;47.686;16.584;2024-02-26T20:24:12;9.74;73.26
66576;SHT31;53428;47.686;16.584;2024-02-26T20:29:12;9.74;73.31
66576;SHT31;53428;47.686;16.584;2024-02-26T20:34:12;9.71;73.55
66576;SHT31;53428;47.686;16.584;2024-02-26T20:39:13;9.65;73.68
66576;SHT31;53428;47.686;16.584;2024-02-26T20:44:13;9.78;73.06
66576;SHT31;53428;47.686;16.584;2024-02-26T20:49:13;9.71;73.41
66576;SHT31;53428;47.686;16.584;2024-02-26T20:54:13;9.63;73.55
66576;SHT31;53428;47.686;16.584;2024-02-26T20:59:12;9.75;73.55
66576;SHT31;53428;47.686;16.584;2024-02-26T21:04:12;9.75;73.84
66576;SHT31;53428;47.686;16.584;2024-02-26T21:09:12;9.66;73.91
66576;SHT31;53428;47.686;16.584;2024-02-26T21:14:12;9.78;73.43
66576;SHT31;53428;47.686;16.584;2024-02-26T21:19:11;9.75;73.31
66576;SHT31;53428;47.686;16.584;2024-02-26T21:24:12;9.83;73.14
66576;SHT31;53428;47.686;16.584;2024-02-26T21:29:11;9.78;73.33
66576;SHT31;53428;47.686;16.584;2024-02-26T21:34:10;9.65;73.84
66576;SHT31;53428;47.686;16.584;2024-02-26T21:39:10;9.56;74.00
66576;SHT31;53428;47.686;16.584;2024-02-26T21:44:09;9.58;73.76
66576;SHT31;53428;47.686;16.584;2024-02-26T21:49:09;9.55;73.88
66576;SHT31;53428;47.686;16.584;2024-02-26T21:54:10;9.55;73.93
66576;SHT31;53428;47.686;16.584;2024-02-26T21:59:10;9.52;74.16
66576;SHT31;53428;47.686;16.584;2024-02-26T22:04:09;9.35;75.06
66576;SHT31;53428;47.686;16.584;2024-02-26T22:09:09;9.31;75.60
66576;SHT31;53428;47.686;16.584;2024-02-26T22:14:09;9.24;75.78
66576;SHT31;53428;47.686;16.584;2024-02-26T22:19:08;9.21;75.90
66576;SHT31;53428;47.686;16.584;2024-02-26T22:24:11;9.06;76.49
66576;SHT31;53428;47.686;16.584;2024-02-26T22:29:11;8.99;76.56
66576;SHT31;53428;47.686;16.584;2024-02-26T22:34:10;9.06;76.33
66576;SHT31;53428;47.686;16.584;2024-02-26T22:39:09;9.03;76.40
66576;SHT31;53428;47.686;16.584;2024-02-26T22:44:11;8.96;76.58
66576;SHT31;53428;47.686;16.584;2024-02-26T22:49:10;8.91;76.81
66576;SHT31;53428;47.686;16.584;2024-02-26T22:54:09;8.80;77.25
66576;SHT31;53428;47.686;16.584;2024-02-26T22:59:08;8.68;77.67
66576;SHT31;53428;47.686;16.584;2024-02-26T23:04:07;8.77;77.35
66576;SHT31;53428;47.686;16.584;2024-02-26T23:09:08;8.76;77.40
66576;SHT31;53428;47.686;16.584;2024-02-26T23:14:07;8.68;77.62
66576;SHT31;53428;47.686;16.584;2024-02-26T23:19:06;8.49;78.17
66576;SHT31;53428;47.686;16.584;2024-02-26T23:24:05;8.49;78.30
66576;SHT31;53428;47.686;16.584;2024-02-26T23:29:05;8.48;78.16
66576;SHT31;53428;47.686;16.584;2024-02-26T23:34:04;8.24;78.71
66576;SHT31;53428;47.686;16.584;2024-02-26T23:39:03;8.24;78.57
66576;SHT31;53428;47.686;16.584;2024-02-26T23:44:02;8.14;78.99
66576;SHT31;53428;47.686;16.584;2024-02-26T23:49:01;8.12;79.15
66576;SHT31;53428;47.686;16.584;2024-02-26T23:54:01;8.10;78.46
66576;SHT31;53428;47.686;16.584;2024-02-26T23:59:00;7.93;78.90
